createdAt,value
2023-05-11T00:00:03.523Z,1014.54
2023-05-11T00:05:03.202Z,1014.62
2023-05-11T00:10:02.933Z,1014.49
2023-05-11T00:15:02.825Z,1014.47
2023-05-11T00:20:03.706Z,1014.46
2023-05-11T00:25:03.327Z,1014.4
2023-05-11T00:30:03.123Z,1014.4
2023-05-11T00:35:03.078Z,1014.42
2023-05-11T00:40:03.246Z,1014.41
2023-05-11T00:45:02.948Z,1014.33
2023-05-11T00:50:03.641Z,1014.33
2023-05-11T00:55:03.519Z,1014.42
2023-05-11T01:00:03.076Z,1014.36
2023-05-11T01:05:03.812Z,1014.37
2023-05-11T01:10:03.561Z,1014.36
2023-05-11T01:15:03.749Z,1014.3
2023-05-11T01:20:03.247Z,1014.33
2023-05-11T01:25:02.910Z,1014.31
2023-05-11T01:30:03.664Z,1014.3
2023-05-11T01:35:03.811Z,1014.34
2023-05-11T01:40:03.459Z,1014.26
2023-05-11T01:45:03.303Z,1014.23
2023-05-11T01:50:02.846Z,1014.3
2023-05-11T01:55:03.496Z,1014.29
2023-05-11T02:00:03.171Z,1014.29
2023-05-11T02:05:03.029Z,1014.37
2023-05-11T02:10:02.763Z,1014.4
2023-05-11T02:15:03.824Z,1014.35
2023-05-11T02:20:03.496Z,1014.45
2023-05-11T02:25:03.212Z,1014.49
2023-05-11T02:30:03.238Z,1014.45
2023-05-11T02:35:02.316Z,1014.5
2023-05-11T02:40:03.972Z,1014.52
2023-05-11T02:45:03.406Z,1014.51
2023-05-11T02:50:03.295Z,1014.48
2023-05-11T02:55:03.450Z,1014.51
2023-05-11T03:00:02.859Z,1014.45
2023-05-11T03:05:03.597Z,1014.47
2023-05-11T03:10:03.340Z,1014.32
2023-05-11T03:15:03.327Z,1014.22
2023-05-11T03:20:02.913Z,1014.37
2023-05-11T03:25:03.687Z,1014.32
2023-05-11T03:30:03.387Z,1014.31
2023-05-11T03:35:03.065Z,1014.32
2023-05-11T03:40:02.814Z,1014.36
2023-05-11T03:45:03.462Z,1014.36
2023-05-11T03:50:03.283Z,1014.43
2023-05-11T03:55:03.163Z,1014.43
2023-05-11T04:00:03.748Z,1014.41
2023-05-11T04:05:03.573Z,1014.53
2023-05-11T04:10:03.292Z,1014.46
2023-05-11T04:15:03.094Z,1014.42
2023-05-11T04:20:03.730Z,1014.32
2023-05-11T04:25:03.453Z,1014.37
2023-05-11T04:30:03.522Z,1014.46
2023-05-11T04:35:03.127Z,1014.43
2023-05-11T04:40:03.125Z,1014.46
2023-05-11T04:45:03.096Z,1014.54
2023-05-11T04:50:03.182Z,1014.62
2023-05-11T04:55:03.000Z,1014.61
2023-05-11T05:00:03.148Z,1014.66
2023-05-11T05:05:03.611Z,1014.67
2023-05-11T05:10:03.438Z,1014.64
2023-05-11T05:15:03.217Z,1014.7
2023-05-11T05:20:03.203Z,1014.6
2023-05-11T05:25:03.174Z,1014.64
2023-05-11T05:30:03.619Z,1014.72
2023-05-11T05:35:03.672Z,1014.76
2023-05-11T05:55:03.182Z,1014.79
2023-05-11T06:00:02.957Z,1014.73
2023-05-11T06:05:04.092Z,1014.79
2023-05-11T06:10:03.210Z,1014.85
2023-05-11T06:15:03.275Z,1014.89
2023-05-11T06:20:02.902Z,1014.85
2023-05-11T06:25:03.947Z,1014.89
2023-05-11T06:30:03.444Z,1014.85
2023-05-11T06:35:03.233Z,1014.89
2023-05-11T06:40:02.998Z,1014.9
2023-05-11T06:45:04.005Z,1014.93
2023-05-11T06:55:03.088Z,1014.86
2023-05-11T07:00:04.030Z,1014.9
2023-05-11T07:05:03.814Z,1014.88
2023-05-11T07:10:03.120Z,1014.84
2023-05-11T07:30:03.533Z,1014.84
2023-05-11T07:35:03.075Z,1014.89
2023-05-11T07:40:02.951Z,1014.97
2023-05-11T07:50:03.521Z,1014.93
2023-05-11T07:55:03.798Z,1014.98
2023-05-11T08:00:03.179Z,1014.97
2023-05-11T08:10:03.529Z,1015.03
2023-05-11T08:15:03.224Z,1015.08
2023-05-11T08:20:02.969Z,1014.96
2023-05-11T08:25:03.832Z,1015.1
2023-05-11T08:30:03.560Z,1014.95
2023-05-11T08:35:04.023Z,1015.05
2023-05-11T08:40:03.268Z,1015.08
2023-05-11T08:45:03.221Z,1015.09
2023-05-11T08:50:03.660Z,1015.08
2023-05-11T08:55:04.097Z,1015.09
2023-05-11T09:05:03.344Z,1015.13
2023-05-11T09:10:03.067Z,1015.05
2023-05-11T09:15:03.563Z,1015.05
2023-05-11T09:25:03.210Z,1014.99
2023-05-11T09:30:03.194Z,1015.05
2023-05-11T09:35:02.943Z,1014.97
2023-05-11T09:45:03.431Z,1014.91
2023-05-11T09:50:03.337Z,1014.89
2023-05-11T09:55:02.996Z,1014.87
2023-05-11T10:00:03.526Z,1014.89
2023-05-11T10:05:03.315Z,1014.89
2023-05-11T10:10:03.602Z,1014.88
2023-05-11T10:15:03.562Z,1014.73
2023-05-11T10:20:03.801Z,1014.68
2023-05-11T10:25:03.489Z,1014.66
2023-05-11T10:30:03.229Z,1014.64
2023-05-11T10:35:02.975Z,1014.58
2023-05-11T10:40:03.692Z,1014.55
2023-05-11T10:45:04.029Z,1014.57
2023-05-11T10:50:03.397Z,1014.6
2023-05-11T10:55:03.113Z,1014.58
2023-05-11T11:00:02.969Z,1014.53
2023-05-11T11:05:03.895Z,1014.58
2023-05-11T11:10:03.298Z,1014.55
2023-05-11T11:15:03.230Z,1014.53
2023-05-11T11:20:02.936Z,1014.53
2023-05-11T11:25:02.906Z,1014.47
2023-05-11T11:30:02.917Z,1014.47
2023-05-11T11:35:03.677Z,1014.54
2023-05-11T11:40:16.444Z,1014.61
2023-05-11T11:45:03.436Z,1014.61
2023-05-11T11:50:03.407Z,1014.57
2023-05-11T11:55:02.869Z,1014.56
2023-05-11T12:00:03.615Z,1014.5
2023-05-11T12:05:03.640Z,1014.36
2023-05-11T12:10:03.467Z,1014.57
2023-05-11T12:15:03.042Z,1014.49
2023-05-11T12:20:03.120Z,1014.39
2023-05-11T12:25:02.845Z,1014.46
2023-05-11T12:30:03.657Z,1014.51
2023-05-11T12:35:03.434Z,1014.57
2023-05-11T12:40:03.231Z,1014.52
2023-05-11T12:45:02.975Z,1014.59
2023-05-11T12:50:02.903Z,1014.46
2023-05-11T12:55:03.692Z,1014.41
2023-05-11T13:00:03.640Z,1014.41
2023-05-11T13:05:03.106Z,1014.34
2023-05-11T13:10:02.919Z,1014.39
2023-05-11T13:15:03.553Z,1014.48
2023-05-11T13:20:03.666Z,1014.44
2023-05-11T13:25:02.880Z,1014.43
2023-05-11T13:30:02.899Z,1014.47
2023-05-11T13:35:03.586Z,1014.46
2023-05-11T13:40:03.574Z,1014.41
2023-05-11T13:45:03.107Z,1014.41
2023-05-11T13:50:03.294Z,1014.28
2023-05-11T13:55:03.516Z,1014.29
2023-05-11T14:00:03.056Z,1014.3
2023-05-11T14:05:02.783Z,1014.34
2023-05-11T14:10:02.956Z,1014.26
2023-05-11T14:15:03.701Z,1014.36
2023-05-11T14:20:03.845Z,1014.3
2023-05-11T14:25:03.493Z,1014.3
2023-05-11T14:30:03.362Z,1014.28
2023-05-11T14:35:03.048Z,1014.4
2023-05-11T14:40:03.458Z,1014.38
2023-05-11T14:45:03.676Z,1014.32
2023-05-11T14:50:03.545Z,1014.4
2023-05-11T14:55:03.550Z,1014.33
2023-05-11T15:00:03.160Z,1014.35
2023-05-11T15:05:03.748Z,1014.38
2023-05-11T15:10:04.124Z,1014.47
2023-05-11T15:15:03.546Z,1014.45
2023-05-11T15:20:03.434Z,1014.54
2023-05-11T15:25:03.032Z,1014.57
2023-05-11T15:30:02.816Z,1014.56
2023-05-11T15:35:03.578Z,1014.66
2023-05-11T15:40:03.460Z,1014.78
2023-05-11T15:45:03.190Z,1014.85
2023-05-11T15:50:03.089Z,1014.83
2023-05-11T15:55:03.002Z,1014.84
2023-05-11T16:00:03.618Z,1014.81
2023-05-11T16:05:03.312Z,1014.81
2023-05-11T16:10:03.279Z,1014.75
2023-05-11T16:15:03.108Z,1014.79
2023-05-11T16:20:02.888Z,1014.86
2023-05-11T16:25:02.981Z,1014.84
2023-05-11T16:30:26.053Z,1014.97
2023-05-11T16:35:03.036Z,1015.02
2023-05-11T16:40:03.110Z,1015.01
2023-05-11T16:45:03.837Z,1015
2023-05-11T16:50:02.955Z,1014.99
2023-05-11T16:55:04.142Z,1015.03
2023-05-11T17:00:03.784Z,1015.1
2023-05-11T17:05:03.292Z,1015.06
2023-05-11T17:10:03.144Z,1015.07
2023-05-11T17:15:03.258Z,1015.05
2023-05-11T17:20:03.651Z,1015.05
2023-05-11T17:25:03.373Z,1015.17
2023-05-11T17:30:03.451Z,1015.18
2023-05-11T17:35:03.123Z,1015.14
2023-05-11T17:40:02.773Z,1015.12
2023-05-11T17:45:02.912Z,1015.25
2023-05-11T17:50:03.629Z,1015.23
2023-05-11T17:55:03.822Z,1015.32
2023-05-11T18:00:03.336Z,1015.38
2023-05-11T18:05:03.353Z,1015.4
2023-05-11T18:10:03.833Z,1015.46
2023-05-11T18:15:03.532Z,1015.53
2023-05-11T18:20:03.370Z,1015.54
2023-05-11T18:25:03.289Z,1015.57
2023-05-11T18:30:02.895Z,1015.66
2023-05-11T18:35:03.635Z,1015.69
2023-05-11T18:40:03.405Z,1015.8
2023-05-11T18:45:03.310Z,1015.82
2023-05-11T18:50:02.923Z,1015.88
2023-05-11T18:55:03.215Z,1015.95
2023-05-11T19:00:03.596Z,1016.05
2023-05-11T19:05:03.491Z,1015.96
2023-05-11T19:10:03.267Z,1016
2023-05-11T19:15:03.041Z,1016.14
2023-05-11T19:20:02.839Z,1016.21
2023-05-11T19:25:03.064Z,1016.37
2023-05-11T19:30:03.654Z,1016.33
2023-05-11T19:35:03.304Z,1016.4
2023-05-11T19:40:47.083Z,1016.49
2023-05-11T19:45:02.980Z,1016.55
2023-05-11T19:50:04.034Z,1016.49
2023-05-11T19:55:04.110Z,1016.54
2023-05-11T20:00:03.588Z,1016.6
2023-05-11T20:05:03.242Z,1016.65
2023-05-11T20:10:03.150Z,1016.77
2023-05-11T20:15:02.880Z,1016.72
2023-05-11T20:20:03.713Z,1016.78
2023-05-11T20:25:02.759Z,1016.68
2023-05-11T20:30:03.719Z,1016.7
2023-05-11T20:35:03.712Z,1016.75
2023-05-11T20:40:03.542Z,1016.74
2023-05-11T20:45:03.258Z,1016.83
2023-05-11T20:50:03.175Z,1016.77
2023-05-11T20:55:03.264Z,1016.83
2023-05-11T21:00:05.696Z,1016.85
2023-05-11T21:05:03.863Z,1016.84
2023-05-11T21:10:03.424Z,1016.85
2023-05-11T21:15:03.108Z,1016.89
2023-05-11T21:20:03.123Z,1016.9
2023-05-11T21:25:02.955Z,1016.84
2023-05-11T21:30:03.100Z,1016.88
2023-05-11T21:35:03.020Z,1016.95
2023-05-11T21:40:03.797Z,1016.96
2023-05-11T21:45:03.803Z,1016.98
2023-05-11T21:50:03.362Z,1016.96
2023-05-11T21:55:03.168Z,1017.11
2023-05-11T22:00:05.666Z,1017.05
2023-05-11T22:05:03.293Z,1017.05
2023-05-11T22:10:03.234Z,1017.02
2023-05-11T22:15:03.231Z,1017.04
2023-05-11T22:20:02.839Z,1017.01
2023-05-11T22:25:02.807Z,1017.11
2023-05-11T22:30:03.543Z,1017.07
2023-05-11T22:35:03.717Z,1017.17
2023-05-11T22:40:03.154Z,1017.18
2023-05-11T22:45:03.109Z,1017.19
2023-05-11T22:50:02.945Z,1017.15
2023-05-11T22:55:04.189Z,1017.17
2023-05-11T23:00:02.833Z,1017.18
2023-05-11T23:05:03.595Z,1017.22
2023-05-11T23:10:02.891Z,1017.17
2023-05-11T23:15:02.839Z,1017.08
2023-05-11T23:20:03.949Z,1017.15
2023-05-11T23:25:03.533Z,1017.21
2023-05-11T23:30:03.209Z,1017.14
2023-05-11T23:35:02.830Z,1017.18
2023-05-11T23:40:03.081Z,1017.16
2023-05-11T23:45:03.851Z,1017.18
2023-05-11T23:50:03.415Z,1017.14
2023-05-11T23:55:03.026Z,1017.18
